createdAt,value
2022-10-30T00:01:23.263Z,76.00
2022-10-30T00:03:51.311Z,75.90
2022-10-30T00:06:20.455Z,76.00
2022-10-30T00:08:48.586Z,76.00
2022-10-30T00:11:16.619Z,76.00
2022-10-30T00:13:45.098Z,75.90
2022-10-30T00:16:13.264Z,76.40
2022-10-30T00:18:43.340Z,74.50
2022-10-30T00:21:15.556Z,74.70
2022-10-30T00:23:52.031Z,74.60
2022-10-30T00:26:22.999Z,74.70
2022-10-30T00:28:52.909Z,75.00
2022-10-30T00:31:21.077Z,75.10
2022-10-30T00:33:54.682Z,75.10
2022-10-30T00:36:23.486Z,75.00
2022-10-30T00:38:51.685Z,75.20
2022-10-30T00:41:24.567Z,75.50
2022-10-30T00:43:53.060Z,75.20
2022-10-30T00:46:41.134Z,75.30
2022-10-30T00:49:20.016Z,75.40
2022-10-30T00:51:54.965Z,75.80
2022-10-30T00:54:23.860Z,76.10
2022-10-30T00:56:53.770Z,76.20
2022-10-30T00:59:30.847Z,76.20
2022-10-30T01:02:01.433Z,76.70
2022-10-30T01:04:33.111Z,76.60
2022-10-30T01:07:11.033Z,76.90
2022-10-30T01:09:40.818Z,77.10
2022-10-30T01:12:09.497Z,77.10
2022-10-30T01:14:48.360Z,77.30
2022-10-30T01:17:20.546Z,77.30
2022-10-30T01:19:57.550Z,77.30
2022-10-30T01:23:15.871Z,77.10
2022-10-30T01:26:39.854Z,77.10
2022-10-30T01:29:33.532Z,77.60
2022-10-30T01:32:27.995Z,78.00
2022-10-30T01:35:08.447Z,77.80
2022-10-30T01:37:58.300Z,77.10
2022-10-30T01:40:27.054Z,75.70
2022-10-30T01:42:58.591Z,75.20
2022-10-30T01:45:48.045Z,74.50
2022-10-30T01:48:53.105Z,73.30
2022-10-30T01:52:03.521Z,74.70
2022-10-30T01:54:56.098Z,72.70
2022-10-30T01:57:50.346Z,71.60
2022-10-30T02:00:20.581Z,71.60
2022-10-30T02:02:51.649Z,71.60
2022-10-30T02:05:44.209Z,71.10
2022-10-30T02:08:12.532Z,68.90
2022-10-30T02:10:44.714Z,70.20
2022-10-30T02:13:13.138Z,69.70
2022-10-30T02:15:44.006Z,69.60
2022-10-30T02:18:12.205Z,69.20
2022-10-30T02:20:41.360Z,68.90
2022-10-30T02:23:13.629Z,68.70
2022-10-30T02:25:41.833Z,68.40
2022-10-30T02:28:11.235Z,68.10
2022-10-30T02:30:44.229Z,68.00
2022-10-30T02:33:12.585Z,67.60
2022-10-30T02:35:40.660Z,67.50
2022-10-30T02:38:09.228Z,68.30
2022-10-30T02:40:37.313Z,67.40
2022-10-30T02:43:05.368Z,67.70
2022-10-30T02:45:33.600Z,68.00
2022-10-30T02:48:02.285Z,68.10
2022-10-30T02:50:31.684Z,68.50
2022-10-30T02:53:00.380Z,68.80
2022-10-30T02:55:29.258Z,69.30
2022-10-30T02:57:57.485Z,69.70
2022-10-30T03:00:26.024Z,70.10
2022-10-30T03:02:57.737Z,70.50
2022-10-30T03:05:25.925Z,71.00
2022-10-30T03:07:55.504Z,71.70
2022-10-30T03:10:24.115Z,73.60
2022-10-30T03:12:53.547Z,74.10
2022-10-30T03:15:22.478Z,74.20
2022-10-30T03:17:52.973Z,74.40
2022-10-30T03:20:21.517Z,74.70
2022-10-30T03:22:49.716Z,75.30
2022-10-30T03:25:23.885Z,75.50
2022-10-30T03:27:56.128Z,75.60
2022-10-30T03:30:24.493Z,75.90
2022-10-30T03:32:52.592Z,76.30
2022-10-30T03:35:21.739Z,76.40
2022-10-30T03:37:49.940Z,76.60
2022-10-30T03:40:19.609Z,76.20
2022-10-30T03:42:47.787Z,75.70
2022-10-30T03:45:16.248Z,76.30
2022-10-30T03:47:44.310Z,77.00
2022-10-30T03:50:12.423Z,77.30
2022-10-30T03:52:40.476Z,77.20
2022-10-30T03:55:09.281Z,77.30
2022-10-30T03:57:40.961Z,77.30
2022-10-30T04:00:18.642Z,77.10
2022-10-30T04:03:01.142Z,76.90
2022-10-30T04:05:31.875Z,77.10
2022-10-30T04:08:07.731Z,77.20
2022-10-30T04:10:38.158Z,77.30
2022-10-30T04:13:12.926Z,77.40
2022-10-30T04:15:56.344Z,77.30
2022-10-30T04:18:27.083Z,77.70
2022-10-30T04:20:56.225Z,77.80
2022-10-30T04:23:24.326Z,77.90
2022-10-30T04:25:52.526Z,77.80
2022-10-30T04:28:21.699Z,77.20
2022-10-30T04:30:49.873Z,76.70
2022-10-30T04:33:19.036Z,76.30
2022-10-30T04:35:47.237Z,75.90
2022-10-30T04:38:21.458Z,75.70
2022-10-30T04:40:50.002Z,75.80
2022-10-30T04:43:19.188Z,75.70
2022-10-30T04:45:50.968Z,75.50
2022-10-30T04:48:19.770Z,75.30
2022-10-30T04:50:49.059Z,75.50
2022-10-30T04:53:26.020Z,75.50
2022-10-30T04:56:01.058Z,75.30
2022-10-30T04:58:29.742Z,75.60
2022-10-30T05:01:09.378Z,75.40
2022-10-30T05:03:38.656Z,75.60
2022-10-30T05:06:30.470Z,75.30
2022-10-30T05:08:59.296Z,74.80
2022-10-30T05:11:39.472Z,75.00
2022-10-30T05:14:09.403Z,74.70
2022-10-30T05:16:38.898Z,74.20
2022-10-30T05:19:07.588Z,74.00
2022-10-30T05:21:36.483Z,73.90
2022-10-30T05:24:05.911Z,73.90
2022-10-30T05:26:41.920Z,73.70
2022-10-30T05:29:10.117Z,73.80
2022-10-30T05:31:40.574Z,73.60
2022-10-30T05:34:17.796Z,73.60
2022-10-30T05:36:48.642Z,73.20
2022-10-30T05:39:17.447Z,73.10
2022-10-30T05:41:49.102Z,73.00
2022-10-30T05:44:29.209Z,72.90
2022-10-30T05:47:03.150Z,72.60
2022-10-30T05:49:34.500Z,73.10
2022-10-30T05:52:05.556Z,73.60
2022-10-30T05:54:34.116Z,73.90
2022-10-30T05:57:08.918Z,73.90
2022-10-30T05:59:40.030Z,73.60
2022-10-30T06:02:09.032Z,73.10
2022-10-30T06:04:37.844Z,73.30
2022-10-30T06:07:11.455Z,72.90
2022-10-30T06:09:39.670Z,71.60
2022-10-30T06:12:27.894Z,71.50
2022-10-30T06:15:06.435Z,71.60
2022-10-30T06:17:34.498Z,71.60
2022-10-30T06:20:17.014Z,71.50
2022-10-30T06:22:57.783Z,70.90
2022-10-30T06:25:37.741Z,70.70
2022-10-30T06:28:31.535Z,71.30
2022-10-30T06:30:59.859Z,71.70
2022-10-30T06:33:28.304Z,72.00
2022-10-30T06:35:56.744Z,72.10
2022-10-30T06:38:24.942Z,71.90
2022-10-30T06:40:54.801Z,71.60
2022-10-30T06:43:41.635Z,71.90
2022-10-30T06:46:32.431Z,72.20
2022-10-30T06:49:02.128Z,72.10
2022-10-30T06:51:32.159Z,72.50
2022-10-30T06:54:01.430Z,72.40
2022-10-30T06:56:51.953Z,72.90
2022-10-30T06:59:50.265Z,73.20
2022-10-30T07:02:38.503Z,73.00
2022-10-30T07:05:10.677Z,73.10
2022-10-30T07:07:40.547Z,73.10
2022-10-30T07:10:10.189Z,73.50
2022-10-30T07:13:04.312Z,73.50
2022-10-30T07:15:45.266Z,73.60
2022-10-30T07:18:22.920Z,73.60
2022-10-30T07:20:57.027Z,73.90
2022-10-30T07:23:25.802Z,74.60
2022-10-30T07:26:03.732Z,74.60
2022-10-30T07:28:43.954Z,75.00
2022-10-30T07:31:34.818Z,74.70
2022-10-30T07:34:32.293Z,75.00
2022-10-30T07:37:18.977Z,74.70
2022-10-30T07:39:59.079Z,74.20
2022-10-30T07:42:46.226Z,74.60
2022-10-30T07:45:34.365Z,74.50
2022-10-30T07:48:40.960Z,74.10
2022-10-30T07:51:20.214Z,74.00
2022-10-30T07:53:48.395Z,73.40
2022-10-30T07:56:16.954Z,73.00
2022-10-30T07:58:54.162Z,72.40
2022-10-30T08:01:38.596Z,72.20
2022-10-30T08:04:28.008Z,72.70
2022-10-30T08:07:01.244Z,72.70
2022-10-30T08:09:30.786Z,72.80
2022-10-30T08:11:58.852Z,73.20
2022-10-30T08:14:27.200Z,75.10
2022-10-30T08:16:57.295Z,76.40
2022-10-30T08:19:25.524Z,76.70
2022-10-30T08:21:59.190Z,77.20
2022-10-30T08:24:28.525Z,77.90
2022-10-30T08:26:59.945Z,77.50
2022-10-30T08:29:28.886Z,77.50
2022-10-30T08:31:57.910Z,77.60
2022-10-30T08:34:27.678Z,77.70
2022-10-30T08:36:57.694Z,77.80
2022-10-30T08:39:26.020Z,79.30
2022-10-30T08:42:17.479Z,79.60
2022-10-30T08:44:46.282Z,80.10
2022-10-30T08:47:26.124Z,80.10
2022-10-30T08:49:54.348Z,80.00
2022-10-30T08:52:26.250Z,79.70
2022-10-30T08:54:57.954Z,79.90
2022-10-30T08:57:28.416Z,80.20
2022-10-30T08:59:58.445Z,81.20
2022-10-30T09:02:55.855Z,81.60
2022-10-30T09:05:53.672Z,82.20
2022-10-30T09:08:22.065Z,82.90
2022-10-30T09:11:04.201Z,83.30
2022-10-30T09:13:33.501Z,83.60
2022-10-30T09:16:04.076Z,83.60
2022-10-30T09:18:35.034Z,83.90
2022-10-30T09:21:05.066Z,84.00
2022-10-30T09:23:39.140Z,84.60
2022-10-30T09:26:30.003Z,85.70
2022-10-30T09:29:18.387Z,86.60
2022-10-30T09:32:15.488Z,87.40
2022-10-30T09:34:53.543Z,87.30
2022-10-30T09:37:27.621Z,87.50
2022-10-30T09:40:00.618Z,87.60
2022-10-30T09:42:44.969Z,87.50
2022-10-30T09:45:42.640Z,87.90
2022-10-30T09:48:23.684Z,87.60
2022-10-30T09:55:41.798Z,88.40
2022-10-30T09:58:34.353Z,88.00
2022-10-30T10:01:29.474Z,88.30
2022-10-30T10:04:28.739Z,88.40
2022-10-30T10:07:30.523Z,88.60
2022-10-30T10:10:53.445Z,87.90
2022-10-30T10:13:38.591Z,87.80
2022-10-30T10:16:21.314Z,87.30
2022-10-30T10:19:07.974Z,86.90
2022-10-30T10:22:08.218Z,86.30
2022-10-30T10:24:44.585Z,86.00
2022-10-30T10:27:38.823Z,85.80
2022-10-30T10:30:20.492Z,85.50
2022-10-30T10:33:10.302Z,85.00
2022-10-30T10:36:22.031Z,84.90
2022-10-30T10:39:07.752Z,84.90
2022-10-30T10:42:03.198Z,84.60
2022-10-30T10:44:39.939Z,84.20
2022-10-30T10:47:44.843Z,84.30
2022-10-30T10:50:26.493Z,84.40
2022-10-30T10:53:09.824Z,84.80
2022-10-30T10:55:40.050Z,83.10
2022-10-30T10:58:23.390Z,83.00
2022-10-30T11:00:53.015Z,82.00
2022-10-30T11:03:35.160Z,81.50
2022-10-30T11:06:27.465Z,81.30
2022-10-30T11:09:14.045Z,80.50
2022-10-30T11:11:45.270Z,80.80
2022-10-30T11:14:31.548Z,80.60
2022-10-30T11:17:18.371Z,79.80
2022-10-30T11:19:51.813Z,79.60
2022-10-30T11:22:43.221Z,80.50
2022-10-30T11:25:26.918Z,79.70
2022-10-30T11:28:02.304Z,79.50
2022-10-30T11:30:30.843Z,79.60
2022-10-30T11:33:19.931Z,79.40
2022-10-30T11:35:48.035Z,78.90
2022-10-30T11:38:22.342Z,78.40
2022-10-30T11:40:52.973Z,77.10
2022-10-30T11:43:25.700Z,76.50
2022-10-30T11:45:54.625Z,76.40
2022-10-30T11:48:31.698Z,76.30
2022-10-30T11:51:02.365Z,75.60
2022-10-30T11:53:49.247Z,75.70
2022-10-30T11:56:21.897Z,74.20
2022-10-30T11:59:03.535Z,75.10
2022-10-30T12:01:36.328Z,74.80
2022-10-30T12:04:21.639Z,75.40
2022-10-30T12:07:26.440Z,75.20
2022-10-30T12:09:54.550Z,75.70
2022-10-30T12:12:29.564Z,75.90
2022-10-30T12:15:14.220Z,75.30
2022-10-30T12:18:02.219Z,75.00
2022-10-30T12:20:30.773Z,74.70
2022-10-30T12:22:59.201Z,74.80
2022-10-30T12:25:31.144Z,74.50
2022-10-30T12:28:18.187Z,74.60
2022-10-30T12:31:23.709Z,74.20
2022-10-30T12:34:18.435Z,73.80
2022-10-30T12:36:56.835Z,73.30
2022-10-30T12:39:38.351Z,73.80
2022-10-30T12:42:14.836Z,73.70
2022-10-30T12:44:53.146Z,73.00
2022-10-30T12:47:34.286Z,72.20
2022-10-30T12:50:16.036Z,68.60
2022-10-30T12:53:27.206Z,70.00
2022-10-30T12:56:26.128Z,70.30
2022-10-30T12:59:53.870Z,70.60
2022-10-30T13:02:40.445Z,69.10
2022-10-30T13:05:28.536Z,68.80
2022-10-30T13:08:51.019Z,68.70
2022-10-30T13:11:36.947Z,69.80
2022-10-30T13:14:16.464Z,71.20
2022-10-30T13:16:44.779Z,71.60
2022-10-30T13:19:14.071Z,71.60
2022-10-30T13:21:53.154Z,71.20
2022-10-30T13:24:31.700Z,70.80
2022-10-30T13:27:07.707Z,71.00
2022-10-30T13:29:54.739Z,70.70
2022-10-30T13:32:41.369Z,70.00
2022-10-30T13:35:26.286Z,70.20
2022-10-30T13:38:19.950Z,69.30
2022-10-30T13:41:00.752Z,69.60
2022-10-30T13:44:32.436Z,69.90
2022-10-30T13:47:59.868Z,69.10
2022-10-30T13:50:40.242Z,68.30
2022-10-30T13:53:19.708Z,68.60
2022-10-30T13:55:49.829Z,68.50
2022-10-30T13:58:29.219Z,68.40
2022-10-30T14:01:31.329Z,68.60
2022-10-30T14:04:19.619Z,68.80
2022-10-30T14:07:10.842Z,69.30
2022-10-30T14:10:13.799Z,68.70
2022-10-30T14:12:55.388Z,69.00
2022-10-30T14:15:42.548Z,68.90
2022-10-30T14:18:13.290Z,69.10
2022-10-30T14:20:55.852Z,69.00
2022-10-30T14:23:35.722Z,69.10
2022-10-30T14:26:04.137Z,68.90
2022-10-30T14:28:38.239Z,68.70
2022-10-30T14:31:18.661Z,68.90
2022-10-30T14:33:55.041Z,69.00
2022-10-30T14:36:33.676Z,69.00
2022-10-30T14:39:14.845Z,69.10
2022-10-30T14:42:07.054Z,69.30
2022-10-30T14:44:59.374Z,69.00
2022-10-30T14:47:27.330Z,69.50
2022-10-30T14:50:01.302Z,69.80
2022-10-30T14:52:43.163Z,70.10
2022-10-30T14:55:32.281Z,70.10
2022-10-30T14:58:03.338Z,70.10
2022-10-30T15:00:35.034Z,70.30
2022-10-30T15:03:36.597Z,70.60
2022-10-30T15:06:42.458Z,70.50
2022-10-30T15:09:29.159Z,70.70
2022-10-30T15:12:24.526Z,70.90
2022-10-30T15:15:03.123Z,71.40
2022-10-30T15:17:39.588Z,71.60
2022-10-30T15:20:18.375Z,71.70
2022-10-30T15:22:51.834Z,71.70
2022-10-30T15:25:23.314Z,72.30
2022-10-30T15:27:57.530Z,72.60
2022-10-30T15:30:27.625Z,72.90
2022-10-30T15:32:55.931Z,73.20
2022-10-30T15:35:30.033Z,73.50
2022-10-30T15:38:10.227Z,74.00
2022-10-30T15:40:39.035Z,74.20
2022-10-30T15:43:12.519Z,74.50
2022-10-30T15:45:47.440Z,74.90
2022-10-30T15:48:33.019Z,75.80
2022-10-30T15:51:06.267Z,75.30
2022-10-30T15:53:45.503Z,75.40
2022-10-30T15:57:21.507Z,75.50
2022-10-30T15:59:38.790Z,76.00
2022-10-30T16:02:22.959Z,76.10
2022-10-30T16:04:51.395Z,76.80
2022-10-30T16:07:24.637Z,76.50
2022-10-30T16:09:55.985Z,75.70
2022-10-30T16:12:32.747Z,74.90
2022-10-30T16:15:24.644Z,74.40
2022-10-30T16:18:27.795Z,74.00
2022-10-30T16:21:03.070Z,74.50
2022-10-30T16:23:37.278Z,74.40
2022-10-30T16:26:05.846Z,74.40
2022-10-30T16:28:36.079Z,74.30
2022-10-30T16:31:08.349Z,74.20
2022-10-30T16:33:37.532Z,74.00
2022-10-30T16:36:07.504Z,74.00
2022-10-30T16:38:37.768Z,74.60
2022-10-30T16:41:12.315Z,75.70
2022-10-30T16:44:04.777Z,75.40
2022-10-30T16:46:53.356Z,77.20
2022-10-30T16:49:30.464Z,79.50
2022-10-30T16:52:07.761Z,81.10
2022-10-30T16:54:42.106Z,83.20
2022-10-30T16:57:27.805Z,83.90
2022-10-30T16:59:57.832Z,85.60
2022-10-30T17:02:35.205Z,85.60
2022-10-30T17:05:35.255Z,86.90
2022-10-30T17:08:39.960Z,87.60
2022-10-30T17:11:18.850Z,87.40
2022-10-30T17:13:59.042Z,87.80
2022-10-30T17:16:31.666Z,89.20
2022-10-30T17:19:31.683Z,88.30
2022-10-30T17:22:04.431Z,89.00
2022-10-30T17:24:36.018Z,88.60
2022-10-30T17:27:29.300Z,88.60
2022-10-30T17:29:57.479Z,89.70
2022-10-30T17:32:29.283Z,89.80
2022-10-30T17:35:18.268Z,89.90
2022-10-30T17:37:46.688Z,90.30
2022-10-30T17:40:15.752Z,90.70
2022-10-30T17:42:43.955Z,89.90
2022-10-30T17:45:15.758Z,90.30
2022-10-30T17:47:43.844Z,90.70
2022-10-30T17:50:12.403Z,91.10
2022-10-30T17:52:40.460Z,91.60
2022-10-30T17:55:25.823Z,91.90
2022-10-30T17:57:53.907Z,92.60
2022-10-30T18:00:22.013Z,92.60
2022-10-30T18:02:50.191Z,93.00
2022-10-30T18:05:22.713Z,93.50
2022-10-30T18:10:23.819Z,94.20
2022-10-30T18:12:51.880Z,95.30
2022-10-30T18:15:46.366Z,96.10
2022-10-30T18:18:14.470Z,96.90
2022-10-30T18:20:42.676Z,96.50
2022-10-30T18:26:28.013Z,96.70
2022-10-30T18:28:56.115Z,96.80
2022-10-30T18:31:25.024Z,96.80
2022-10-30T18:33:53.341Z,96.70
2022-10-30T18:36:24.783Z,96.40
2022-10-30T18:38:54.690Z,96.40
2022-10-30T18:41:34.630Z,96.80
2022-10-30T18:44:03.554Z,97.20
2022-10-30T18:46:33.678Z,97.00
2022-10-30T18:49:01.913Z,96.90
2022-10-30T18:51:29.987Z,96.70
2022-10-30T18:53:58.401Z,96.70
2022-10-30T18:56:29.969Z,96.80
2022-10-30T18:59:02.294Z,97.00
2022-10-30T19:01:32.480Z,97.10
2022-10-30T19:04:02.454Z,97.30
2022-10-30T19:06:31.089Z,97.30
2022-10-30T19:08:59.258Z,97.40
2022-10-30T19:11:30.220Z,98.30
2022-10-30T19:14:00.247Z,98.80
2022-10-30T19:16:29.163Z,98.90
2022-10-30T19:18:57.478Z,99.10
2022-10-30T19:21:26.530Z,99.10
2022-10-30T19:24:06.952Z,98.80
2022-10-30T19:26:35.177Z,99.00
2022-10-30T19:29:03.255Z,98.80
2022-10-30T19:31:31.324Z,98.70
2022-10-30T19:33:59.662Z,99.10
2022-10-30T19:36:37.604Z,99.10
2022-10-30T19:39:14.437Z,98.80
2022-10-30T19:41:42.746Z,98.30
2022-10-30T19:44:11.198Z,96.40
2022-10-30T19:46:39.254Z,97.50
2022-10-30T19:49:25.246Z,98.30
2022-10-30T19:51:53.660Z,99.90
2022-10-30T19:54:21.764Z,99.90
2022-10-30T19:56:49.829Z,99.90
2022-10-30T19:59:18.026Z,99.90
2022-10-30T20:01:46.186Z,99.90
2022-10-30T20:04:14.451Z,99.90
2022-10-30T20:06:42.633Z,99.90
2022-10-30T20:09:13.497Z,99.90
2022-10-30T20:11:41.557Z,99.90
2022-10-30T20:14:09.663Z,99.90
2022-10-30T20:16:37.724Z,99.90
2022-10-30T20:19:29.354Z,99.90
2022-10-30T20:21:57.416Z,99.90
2022-10-30T20:24:25.732Z,99.90
2022-10-30T20:26:56.595Z,99.90
2022-10-30T20:29:25.396Z,99.90
2022-10-30T20:31:53.578Z,99.70
2022-10-30T20:34:21.686Z,99.40
2022-10-30T20:36:49.745Z,98.60
2022-10-30T20:39:17.851Z,97.90
2022-10-30T20:41:46.026Z,97.80
2022-10-30T20:44:14.144Z,97.70
2022-10-30T20:46:42.312Z,97.40
2022-10-30T20:49:17.229Z,97.00
2022-10-30T20:51:47.751Z,96.90
2022-10-30T20:54:15.829Z,96.80
2022-10-30T20:56:43.910Z,96.60
2022-10-30T20:59:11.989Z,96.10
2022-10-30T21:01:40.196Z,95.90
2022-10-30T21:04:08.391Z,95.40
2022-10-30T21:06:36.452Z,94.80
2022-10-30T21:09:04.673Z,94.10
2022-10-30T21:11:32.881Z,93.90
2022-10-30T21:14:00.973Z,94.00
2022-10-30T21:16:29.027Z,94.10
2022-10-30T21:18:57.123Z,94.10
2022-10-30T21:21:26.041Z,94.10
2022-10-30T21:23:55.334Z,94.30
2022-10-30T21:26:24.890Z,94.40
2022-10-30T21:28:53.092Z,94.10
2022-10-30T21:31:21.477Z,94.00
2022-10-30T21:33:49.578Z,94.20
2022-10-30T21:36:20.050Z,94.30
2022-10-30T21:38:48.602Z,93.90
2022-10-30T21:41:20.802Z,93.80
2022-10-30T21:43:55.088Z,93.70
2022-10-30T21:46:27.371Z,93.60
2022-10-30T21:48:56.293Z,93.70
2022-10-30T21:51:26.896Z,93.50
2022-10-30T21:53:56.556Z,93.20
2022-10-30T21:56:29.091Z,93.00
2022-10-30T21:59:00.436Z,93.10
2022-10-30T22:01:31.858Z,92.80
2022-10-30T22:04:02.088Z,92.80
2022-10-30T22:06:31.351Z,92.70
2022-10-30T22:09:00.298Z,92.80
2022-10-30T22:11:29.099Z,92.80
2022-10-30T22:13:59.826Z,92.80
2022-10-30T22:16:30.283Z,93.10
2022-10-30T22:18:59.323Z,92.90
2022-10-30T22:21:27.536Z,92.70
2022-10-30T22:23:55.630Z,92.60
2022-10-30T22:26:24.650Z,92.70
2022-10-30T22:28:59.829Z,92.60
2022-10-30T22:31:30.056Z,92.30
2022-10-30T22:34:01.174Z,92.40
2022-10-30T22:36:32.347Z,92.30
2022-10-30T22:39:04.290Z,92.50
2022-10-30T22:41:36.495Z,92.60
2022-10-30T22:44:08.825Z,92.60
2022-10-30T22:46:37.510Z,92.20
2022-10-30T22:49:06.312Z,92.40
2022-10-30T22:51:37.280Z,92.40
2022-10-30T22:54:12.461Z,92.20
2022-10-30T22:56:41.961Z,93.00
2022-10-30T22:59:14.609Z,92.10
2022-10-30T23:01:43.444Z,91.90
2022-10-30T23:04:14.162Z,92.10
2022-10-30T23:06:43.191Z,92.10
2022-10-30T23:09:19.412Z,92.10
2022-10-30T23:11:47.614Z,92.10
2022-10-30T23:14:15.960Z,91.80
2022-10-30T23:16:44.037Z,91.90
2022-10-30T23:19:12.122Z,91.90
2022-10-30T23:21:40.186Z,92.00
2022-10-30T23:24:08.786Z,92.20
2022-10-30T23:26:37.790Z,92.60
2022-10-30T23:29:06.011Z,92.50
2022-10-30T23:31:41.154Z,92.40
2022-10-30T23:34:16.598Z,92.40
2022-10-30T23:36:45.001Z,92.30
2022-10-30T23:39:18.146Z,92.80
2022-10-30T23:41:46.342Z,92.50
2022-10-30T23:44:16.659Z,92.70
2022-10-30T23:46:45.010Z,92.40
2022-10-30T23:49:13.110Z,92.30
2022-10-30T23:51:41.174Z,92.10
2022-10-30T23:54:09.523Z,92.30
2022-10-30T23:56:37.579Z,92.40
2022-10-30T23:59:05.681Z,92.10
